createdAt,value
2023-01-21T00:00:34.951Z,21.47
2023-01-21T00:15:37.630Z,21.57
2023-01-21T00:30:41.551Z,19.67
2023-01-21T00:45:43.980Z,19.13
2023-01-21T01:00:46.383Z,20.53
2023-01-21T01:15:52.116Z,22.13
2023-01-21T01:30:55.660Z,22.00
2023-01-21T01:45:58.086Z,21.80
2023-01-21T02:01:00.592Z,19.80
2023-01-21T02:16:23.152Z,19.27
2023-01-21T02:32:17.018Z,15.63
2023-01-21T02:47:49.698Z,17.43
2023-01-21T03:03:19.306Z,22.30
2023-01-21T03:18:37.120Z,20.50
2023-01-21T03:33:46.524Z,22.33
2023-01-21T03:49:05.702Z,22.90
2023-01-21T04:04:09.635Z,19.67
2023-01-21T04:19:12.043Z,18.20
2023-01-21T04:34:16.560Z,21.67
2023-01-21T04:49:18.950Z,23.20
2023-01-21T05:04:21.349Z,19.37
2023-01-21T05:19:23.640Z,23.80
2023-01-21T05:34:28.173Z,24.93
2023-01-21T05:49:30.460Z,25.20
2023-01-21T06:04:32.913Z,21.33
2023-01-21T06:19:35.460Z,18.73
2023-01-21T06:34:37.891Z,22.53
2023-01-21T06:49:40.355Z,23.17
2023-01-21T07:04:42.771Z,14.10
2023-01-21T07:19:45.205Z,22.67
2023-01-21T07:34:47.627Z,22.17
2023-01-21T07:49:50.043Z,23.43
2023-01-21T08:04:52.537Z,26.50
2023-01-21T08:19:54.998Z,34.67
2023-01-21T08:34:57.749Z,32.67
2023-01-21T08:50:00.525Z,28.30
2023-01-21T09:05:03.015Z,32.03
2023-01-21T09:20:05.754Z,30.43
2023-01-21T09:35:08.786Z,32.87
2023-01-21T09:50:22.602Z,31.50
2023-01-21T10:05:24.905Z,30.00
2023-01-21T10:20:34.147Z,31.87
2023-01-21T10:36:04.297Z,33.50
2023-01-21T10:51:12.902Z,32.83
2023-01-21T11:06:18.012Z,34.07
2023-01-21T11:21:22.249Z,29.27
2023-01-21T11:36:24.658Z,25.47
2023-01-21T11:51:26.962Z,24.30
2023-01-21T12:06:30.587Z,26.67
2023-01-21T12:21:57.750Z,28.67
2023-01-21T12:37:18.269Z,36.60
2023-01-21T12:52:47.683Z,40.97
2023-01-21T13:08:25.789Z,33.07
2023-01-21T13:23:53.618Z,34.13
2023-01-21T13:39:03.452Z,33.00
2023-01-21T13:54:05.992Z,36.13
2023-01-21T14:09:24.727Z,37.20
2023-01-21T14:24:26.971Z,35.63
2023-01-21T14:39:38.008Z,43.03
2023-01-21T14:54:43.585Z,35.37
2023-01-21T15:09:55.510Z,36.17
2023-01-21T15:25:28.014Z,34.67
2023-01-21T15:40:38.931Z,32.63
2023-01-21T15:56:17.869Z,31.03
2023-01-21T16:11:29.246Z,32.40
2023-01-21T16:26:33.201Z,28.07
2023-01-21T16:41:35.808Z,30.57
2023-01-21T16:56:52.020Z,27.50
2023-01-21T17:11:56.748Z,23.43
2023-01-21T17:27:07.655Z,24.50
2023-01-21T17:42:22.059Z,25.30
2023-01-21T17:57:35.274Z,25.20
2023-01-21T18:12:37.648Z,26.10
2023-01-21T18:27:44.767Z,25.90
2023-01-21T18:42:53.336Z,22.87
2023-01-21T18:57:56.811Z,23.63
2023-01-21T19:12:59.475Z,27.43
2023-01-21T19:28:04.017Z,26.80
2023-01-21T19:43:09.666Z,25.03
2023-01-21T19:58:23.908Z,22.33
2023-01-21T20:13:31.269Z,25.33
2023-01-21T20:28:37.462Z,25.57
2023-01-21T20:43:40.354Z,28.80
2023-01-21T20:58:47.994Z,29.23
2023-01-21T21:13:53.675Z,25.27
2023-01-21T21:28:57.458Z,44.37
2023-01-21T21:44:00.176Z,26.87
2023-01-21T21:59:05.048Z,29.00
2023-01-21T22:14:07.926Z,29.13
2023-01-21T22:29:10.463Z,28.17
2023-01-21T22:44:12.972Z,28.23
2023-01-21T22:59:15.566Z,30.37
2023-01-21T23:14:18.701Z,32.90
2023-01-21T23:29:21.222Z,32.30
2023-01-21T23:44:25.430Z,33.03
2023-01-21T23:59:27.859Z,33.53
